sensor_id;sensor_type;location;lat;lon;timestamp;P1;durP1;ratioP1;P2;durP2;ratioP2
15049;SDS011;7622;42.724;23.250;2022-12-10T00:02:10;14.90;;;7.97;;
15049;SDS011;7622;42.724;23.250;2022-12-10T00:04:36;14.17;;;7.93;;
15049;SDS011;7622;42.724;23.250;2022-12-10T00:07:03;17.53;;;8.40;;
15049;SDS011;7622;42.724;23.250;2022-12-10T00:09:30;17.20;;;9.13;;
15049;SDS011;7622;42.724;23.250;2022-12-10T00:11:57;15.80;;;7.73;;
15049;SDS011;7622;42.724;23.250;2022-12-10T00:14:23;15.90;;;6.97;;
15049;SDS011;7622;42.724;23.250;2022-12-10T00:16:50;19.00;;;8.07;;
15049;SDS011;7622;42.724;23.250;2022-12-10T00:19:18;18.00;;;7.67;;
15049;SDS011;7622;42.724;23.250;2022-12-10T00:21:45;13.30;;;7.77;;
15049;SDS011;7622;42.724;23.250;2022-12-10T00:24:12;13.70;;;7.53;;
15049;SDS011;7622;42.724;23.250;2022-12-10T00:26:39;15.23;;;9.43;;
15049;SDS011;7622;42.724;23.250;2022-12-10T00:29:06;19.63;;;9.70;;
15049;SDS011;7622;42.724;23.250;2022-12-10T00:31:36;14.40;;;7.73;;
15049;SDS011;7622;42.724;23.250;2022-12-10T00:34:04;15.33;;;7.03;;
15049;SDS011;7622;42.724;23.250;2022-12-10T00:36:36;14.87;;;7.40;;
15049;SDS011;7622;42.724;23.250;2022-12-10T00:39:04;9.83;;;6.53;;
15049;SDS011;7622;42.724;23.250;2022-12-10T00:41:32;14.03;;;6.67;;
15049;SDS011;7622;42.724;23.250;2022-12-10T00:43:59;16.27;;;5.87;;
15049;SDS011;7622;42.724;23.250;2022-12-10T00:46:26;17.70;;;6.17;;
15049;SDS011;7622;42.724;23.250;2022-12-10T00:48:53;10.90;;;6.20;;
15049;SDS011;7622;42.724;23.250;2022-12-10T00:51:20;10.00;;;5.83;;
15049;SDS011;7622;42.724;23.250;2022-12-10T00:53:50;12.53;;;7.23;;
15049;SDS011;7622;42.724;23.250;2022-12-10T00:56:19;10.77;;;5.63;;
15049;SDS011;7622;42.724;23.250;2022-12-10T00:58:47;9.43;;;5.60;;
15049;SDS011;7622;42.724;23.250;2022-12-10T01:01:15;13.73;;;6.80;;
15049;SDS011;7622;42.724;23.250;2022-12-10T01:03:45;17.57;;;6.63;;
15049;SDS011;7622;42.724;23.250;2022-12-10T01:06:14;14.90;;;6.87;;
15049;SDS011;7622;42.724;23.250;2022-12-10T01:08:43;18.47;;;6.80;;
15049;SDS011;7622;42.724;23.250;2022-12-10T01:11:12;17.70;;;7.37;;
15049;SDS011;7622;42.724;23.250;2022-12-10T01:13:40;11.00;;;7.27;;
15049;SDS011;7622;42.724;23.250;2022-12-10T01:16:08;11.53;;;7.83;;
15049;SDS011;7622;42.724;23.250;2022-12-10T01:18:36;16.40;;;8.60;;
15049;SDS011;7622;42.724;23.250;2022-12-10T01:21:04;16.37;;;8.87;;
15049;SDS011;7622;42.724;23.250;2022-12-10T01:23:33;21.27;;;9.53;;
15049;SDS011;7622;42.724;23.250;2022-12-10T01:26:02;15.73;;;9.73;;
15049;SDS011;7622;42.724;23.250;2022-12-10T01:28:33;11.90;;;7.40;;
15049;SDS011;7622;42.724;23.250;2022-12-10T01:31:02;12.17;;;7.67;;
15049;SDS011;7622;42.724;23.250;2022-12-10T01:33:31;15.53;;;8.33;;
15049;SDS011;7622;42.724;23.250;2022-12-10T01:36:01;13.83;;;7.53;;
15049;SDS011;7622;42.724;23.250;2022-12-10T01:38:28;14.77;;;8.43;;
15049;SDS011;7622;42.724;23.250;2022-12-10T01:40:55;17.37;;;7.67;;
15049;SDS011;7622;42.724;23.250;2022-12-10T01:43:22;14.50;;;7.03;;
15049;SDS011;7622;42.724;23.250;2022-12-10T01:45:50;13.90;;;7.27;;
15049;SDS011;7622;42.724;23.250;2022-12-10T01:48:17;13.77;;;7.50;;
15049;SDS011;7622;42.724;23.250;2022-12-10T01:50:45;12.30;;;6.77;;
15049;SDS011;7622;42.724;23.250;2022-12-10T01:53:12;37.17;;;13.70;;
15049;SDS011;7622;42.724;23.250;2022-12-10T01:55:44;12.87;;;8.10;;
15049;SDS011;7622;42.724;23.250;2022-12-10T01:58:14;15.43;;;7.47;;
15049;SDS011;7622;42.724;23.250;2022-12-10T02:00:44;15.60;;;7.37;;
15049;SDS011;7622;42.724;23.250;2022-12-10T02:03:24;12.57;;;7.00;;
15049;SDS011;7622;42.724;23.250;2022-12-10T02:05:58;7.77;;;5.40;;
15049;SDS011;7622;42.724;23.250;2022-12-10T02:08:33;11.77;;;6.60;;
15049;SDS011;7622;42.724;23.250;2022-12-10T02:11:07;12.63;;;7.33;;
15049;SDS011;7622;42.724;23.250;2022-12-10T02:13:41;12.23;;;5.87;;
15049;SDS011;7622;42.724;23.250;2022-12-10T02:16:14;10.30;;;5.57;;
15049;SDS011;7622;42.724;23.250;2022-12-10T02:18:43;10.47;;;5.80;;
15049;SDS011;7622;42.724;23.250;2022-12-10T02:21:16;15.47;;;6.10;;
15049;SDS011;7622;42.724;23.250;2022-12-10T02:23:51;16.43;;;7.10;;
15049;SDS011;7622;42.724;23.250;2022-12-10T02:26:23;10.20;;;6.43;;
15049;SDS011;7622;42.724;23.250;2022-12-10T02:29:04;12.73;;;6.70;;
15049;SDS011;7622;42.724;23.250;2022-12-10T02:31:38;13.07;;;7.07;;
15049;SDS011;7622;42.724;23.250;2022-12-10T02:34:08;16.50;;;9.80;;
15049;SDS011;7622;42.724;23.250;2022-12-10T02:36:37;11.67;;;6.50;;
15049;SDS011;7622;42.724;23.250;2022-12-10T02:39:08;15.73;;;7.63;;
15049;SDS011;7622;42.724;23.250;2022-12-10T02:41:39;13.57;;;7.33;;
15049;SDS011;7622;42.724;23.250;2022-12-10T02:44:12;13.97;;;7.63;;
15049;SDS011;7622;42.724;23.250;2022-12-10T02:46:43;18.27;;;8.83;;
15049;SDS011;7622;42.724;23.250;2022-12-10T02:49:12;12.87;;;8.40;;
15049;SDS011;7622;42.724;23.250;2022-12-10T02:51:41;14.97;;;7.40;;
15049;SDS011;7622;42.724;23.250;2022-12-10T02:57:14;16.00;;;7.63;;
15049;SDS011;7622;42.724;23.250;2022-12-10T02:59:51;15.27;;;6.67;;
15049;SDS011;7622;42.724;23.250;2022-12-10T03:02:33;11.10;;;7.00;;
15049;SDS011;7622;42.724;23.250;2022-12-10T03:05:08;12.93;;;6.83;;
15049;SDS011;7622;42.724;23.250;2022-12-10T03:07:42;16.57;;;6.87;;
15049;SDS011;7622;42.724;23.250;2022-12-10T03:10:15;13.30;;;6.67;;
15049;SDS011;7622;42.724;23.250;2022-12-10T03:12:49;11.80;;;6.40;;
15049;SDS011;7622;42.724;23.250;2022-12-10T03:15:20;12.07;;;6.73;;
15049;SDS011;7622;42.724;23.250;2022-12-10T03:17:51;13.43;;;6.90;;
15049;SDS011;7622;42.724;23.250;2022-12-10T03:20:19;16.73;;;7.53;;
15049;SDS011;7622;42.724;23.250;2022-12-10T03:22:50;11.13;;;6.80;;
15049;SDS011;7622;42.724;23.250;2022-12-10T03:25:19;17.97;;;8.50;;
15049;SDS011;7622;42.724;23.250;2022-12-10T03:27:50;11.23;;;7.90;;
15049;SDS011;7622;42.724;23.250;2022-12-10T03:30:21;13.53;;;7.93;;
15049;SDS011;7622;42.724;23.250;2022-12-10T03:32:49;17.70;;;8.30;;
15049;SDS011;7622;42.724;23.250;2022-12-10T03:35:16;15.40;;;8.97;;
15049;SDS011;7622;42.724;23.250;2022-12-10T03:37:46;18.90;;;7.70;;
15049;SDS011;7622;42.724;23.250;2022-12-10T03:40:14;16.80;;;8.30;;
15049;SDS011;7622;42.724;23.250;2022-12-10T03:42:44;14.23;;;8.37;;
15049;SDS011;7622;42.724;23.250;2022-12-10T03:45:10;13.87;;;7.90;;
15049;SDS011;7622;42.724;23.250;2022-12-10T03:47:38;13.30;;;7.87;;
15049;SDS011;7622;42.724;23.250;2022-12-10T03:50:06;14.47;;;8.43;;
15049;SDS011;7622;42.724;23.250;2022-12-10T03:52:33;14.67;;;6.97;;
15049;SDS011;7622;42.724;23.250;2022-12-10T03:55:00;14.23;;;7.80;;
15049;SDS011;7622;42.724;23.250;2022-12-10T03:57:27;10.07;;;7.23;;
15049;SDS011;7622;42.724;23.250;2022-12-10T03:59:54;15.10;;;7.43;;
15049;SDS011;7622;42.724;23.250;2022-12-10T04:02:20;17.77;;;8.43;;
15049;SDS011;7622;42.724;23.250;2022-12-10T04:04:48;15.37;;;8.87;;
15049;SDS011;7622;42.724;23.250;2022-12-10T04:07:15;15.87;;;8.03;;
15049;SDS011;7622;42.724;23.250;2022-12-10T04:09:42;14.70;;;8.73;;
15049;SDS011;7622;42.724;23.250;2022-12-10T04:12:09;16.50;;;8.77;;
15049;SDS011;7622;42.724;23.250;2022-12-10T04:14:35;16.57;;;8.17;;
15049;SDS011;7622;42.724;23.250;2022-12-10T04:17:20;11.93;;;8.17;;
15049;SDS011;7622;42.724;23.250;2022-12-10T04:19:46;13.07;;;7.40;;
15049;SDS011;7622;42.724;23.250;2022-12-10T04:22:15;11.00;;;6.83;;
15049;SDS011;7622;42.724;23.250;2022-12-10T04:24:59;10.40;;;7.30;;
15049;SDS011;7622;42.724;23.250;2022-12-10T04:27:45;11.33;;;6.23;;
15049;SDS011;7622;42.724;23.250;2022-12-10T04:30:12;7.93;;;4.20;;
15049;SDS011;7622;42.724;23.250;2022-12-10T04:32:39;15.57;;;7.23;;
15049;SDS011;7622;42.724;23.250;2022-12-10T04:35:08;13.13;;;6.47;;
15049;SDS011;7622;42.724;23.250;2022-12-10T04:37:35;14.27;;;6.70;;
15049;SDS011;7622;42.724;23.250;2022-12-10T04:40:02;7.83;;;5.20;;
15049;SDS011;7622;42.724;23.250;2022-12-10T04:42:30;9.93;;;5.50;;
15049;SDS011;7622;42.724;23.250;2022-12-10T04:44:57;16.27;;;7.57;;
15049;SDS011;7622;42.724;23.250;2022-12-10T04:47:24;11.93;;;8.77;;
15049;SDS011;7622;42.724;23.250;2022-12-10T04:49:51;16.07;;;6.50;;
15049;SDS011;7622;42.724;23.250;2022-12-10T04:52:19;11.27;;;7.03;;
15049;SDS011;7622;42.724;23.250;2022-12-10T04:54:46;15.83;;;6.77;;
15049;SDS011;7622;42.724;23.250;2022-12-10T04:57:13;10.27;;;6.90;;
15049;SDS011;7622;42.724;23.250;2022-12-10T04:59:40;11.27;;;7.80;;
15049;SDS011;7622;42.724;23.250;2022-12-10T05:02:06;13.80;;;7.87;;
15049;SDS011;7622;42.724;23.250;2022-12-10T05:04:33;13.77;;;7.93;;
15049;SDS011;7622;42.724;23.250;2022-12-10T05:07:00;12.63;;;8.50;;
15049;SDS011;7622;42.724;23.250;2022-12-10T05:09:29;17.40;;;11.30;;
15049;SDS011;7622;42.724;23.250;2022-12-10T05:11:55;18.23;;;11.57;;
15049;SDS011;7622;42.724;23.250;2022-12-10T05:14:22;21.50;;;12.70;;
15049;SDS011;7622;42.724;23.250;2022-12-10T05:16:49;20.87;;;13.53;;
15049;SDS011;7622;42.724;23.250;2022-12-10T05:19:17;21.83;;;12.33;;
15049;SDS011;7622;42.724;23.250;2022-12-10T05:21:46;26.00;;;12.27;;
15049;SDS011;7622;42.724;23.250;2022-12-10T05:24:32;17.00;;;11.07;;
15049;SDS011;7622;42.724;23.250;2022-12-10T05:26:59;19.33;;;11.53;;
15049;SDS011;7622;42.724;23.250;2022-12-10T05:29:26;21.07;;;11.00;;
15049;SDS011;7622;42.724;23.250;2022-12-10T05:31:53;16.73;;;9.90;;
15049;SDS011;7622;42.724;23.250;2022-12-10T05:34:19;20.33;;;10.57;;
15049;SDS011;7622;42.724;23.250;2022-12-10T05:36:46;25.70;;;11.47;;
15049;SDS011;7622;42.724;23.250;2022-12-10T05:39:13;19.37;;;10.67;;
15049;SDS011;7622;42.724;23.250;2022-12-10T05:41:42;18.13;;;9.77;;
15049;SDS011;7622;42.724;23.250;2022-12-10T05:44:10;30.77;;;10.90;;
15049;SDS011;7622;42.724;23.250;2022-12-10T05:46:37;14.40;;;9.77;;
15049;SDS011;7622;42.724;23.250;2022-12-10T05:49:05;17.20;;;9.30;;
15049;SDS011;7622;42.724;23.250;2022-12-10T05:51:33;18.87;;;9.67;;
15049;SDS011;7622;42.724;23.250;2022-12-10T05:54:01;19.60;;;8.77;;
15049;SDS011;7622;42.724;23.250;2022-12-10T05:56:29;12.80;;;8.47;;
15049;SDS011;7622;42.724;23.250;2022-12-10T05:58:58;9.13;;;5.97;;
15049;SDS011;7622;42.724;23.250;2022-12-10T06:01:27;10.40;;;6.50;;
15049;SDS011;7622;42.724;23.250;2022-12-10T06:03:57;10.87;;;6.90;;
15049;SDS011;7622;42.724;23.250;2022-12-10T06:06:25;14.37;;;7.27;;
15049;SDS011;7622;42.724;23.250;2022-12-10T06:08:53;11.27;;;7.17;;
15049;SDS011;7622;42.724;23.250;2022-12-10T06:11:20;11.87;;;7.27;;
15049;SDS011;7622;42.724;23.250;2022-12-10T06:13:47;10.50;;;7.07;;
15049;SDS011;7622;42.724;23.250;2022-12-10T06:16:16;13.67;;;7.37;;
15049;SDS011;7622;42.724;23.250;2022-12-10T06:18:43;8.03;;;6.00;;
15049;SDS011;7622;42.724;23.250;2022-12-10T06:21:10;13.07;;;7.00;;
15049;SDS011;7622;42.724;23.250;2022-12-10T06:23:39;10.87;;;6.57;;
15049;SDS011;7622;42.724;23.250;2022-12-10T06:26:07;16.10;;;7.60;;
15049;SDS011;7622;42.724;23.250;2022-12-10T06:28:36;17.63;;;7.90;;
15049;SDS011;7622;42.724;23.250;2022-12-10T06:31:04;14.70;;;7.97;;
15049;SDS011;7622;42.724;23.250;2022-12-10T06:33:33;14.13;;;7.90;;
15049;SDS011;7622;42.724;23.250;2022-12-10T06:35:59;14.77;;;7.27;;
15049;SDS011;7622;42.724;23.250;2022-12-10T06:38:30;12.90;;;8.10;;
15049;SDS011;7622;42.724;23.250;2022-12-10T06:40:56;18.60;;;8.47;;
15049;SDS011;7622;42.724;23.250;2022-12-10T06:43:23;12.50;;;8.57;;
15049;SDS011;7622;42.724;23.250;2022-12-10T06:45:50;15.10;;;9.30;;
15049;SDS011;7622;42.724;23.250;2022-12-10T06:48:17;26.33;;;9.53;;
15049;SDS011;7622;42.724;23.250;2022-12-10T06:50:45;15.10;;;8.97;;
15049;SDS011;7622;42.724;23.250;2022-12-10T06:53:12;11.03;;;8.67;;
15049;SDS011;7622;42.724;23.250;2022-12-10T06:55:39;13.97;;;7.97;;
15049;SDS011;7622;42.724;23.250;2022-12-10T06:58:06;12.43;;;7.30;;
15049;SDS011;7622;42.724;23.250;2022-12-10T07:00:32;18.17;;;8.60;;
15049;SDS011;7622;42.724;23.250;2022-12-10T07:02:59;8.03;;;5.10;;
15049;SDS011;7622;42.724;23.250;2022-12-10T07:05:26;10.53;;;5.97;;
15049;SDS011;7622;42.724;23.250;2022-12-10T07:07:54;12.93;;;7.43;;
15049;SDS011;7622;42.724;23.250;2022-12-10T07:10:22;16.20;;;8.13;;
15049;SDS011;7622;42.724;23.250;2022-12-10T07:12:49;13.97;;;7.90;;
15049;SDS011;7622;42.724;23.250;2022-12-10T07:15:16;17.40;;;9.23;;
15049;SDS011;7622;42.724;23.250;2022-12-10T07:17:42;15.70;;;10.03;;
15049;SDS011;7622;42.724;23.250;2022-12-10T07:20:09;17.17;;;9.87;;
15049;SDS011;7622;42.724;23.250;2022-12-10T07:22:37;13.73;;;9.43;;
15049;SDS011;7622;42.724;23.250;2022-12-10T07:25:06;16.63;;;10.20;;
15049;SDS011;7622;42.724;23.250;2022-12-10T07:27:34;12.97;;;9.67;;
15049;SDS011;7622;42.724;23.250;2022-12-10T07:30:00;14.77;;;9.00;;
15049;SDS011;7622;42.724;23.250;2022-12-10T07:32:27;13.97;;;8.77;;
15049;SDS011;7622;42.724;23.250;2022-12-10T07:34:54;11.23;;;7.33;;
15049;SDS011;7622;42.724;23.250;2022-12-10T07:37:21;15.00;;;7.93;;
15049;SDS011;7622;42.724;23.250;2022-12-10T07:39:48;11.17;;;7.27;;
15049;SDS011;7622;42.724;23.250;2022-12-10T07:42:16;10.67;;;7.53;;
15049;SDS011;7622;42.724;23.250;2022-12-10T07:44:43;12.47;;;7.63;;
15049;SDS011;7622;42.724;23.250;2022-12-10T07:47:10;13.13;;;7.83;;
15049;SDS011;7622;42.724;23.250;2022-12-10T07:49:37;10.57;;;7.10;;
15049;SDS011;7622;42.724;23.250;2022-12-10T08:40:54;27.50;;;15.53;;
15049;SDS011;7622;42.724;23.250;2022-12-10T08:43:21;22.33;;;16.43;;
15049;SDS011;7622;42.724;23.250;2022-12-10T08:45:47;25.63;;;14.97;;
15049;SDS011;7622;42.724;23.250;2022-12-10T08:48:14;21.80;;;14.23;;
15049;SDS011;7622;42.724;23.250;2022-12-10T08:50:41;16.73;;;12.77;;
15049;SDS011;7622;42.724;23.250;2022-12-10T08:53:08;14.63;;;10.67;;
15049;SDS011;7622;42.724;23.250;2022-12-10T08:55:37;12.17;;;9.20;;
15049;SDS011;7622;42.724;23.250;2022-12-10T08:58:06;12.63;;;8.27;;
15049;SDS011;7622;42.724;23.250;2022-12-10T09:00:34;13.00;;;8.03;;
15049;SDS011;7622;42.724;23.250;2022-12-10T09:03:01;14.77;;;8.27;;
15049;SDS011;7622;42.724;23.250;2022-12-10T09:05:28;9.10;;;6.17;;
15049;SDS011;7622;42.724;23.250;2022-12-10T09:07:55;10.03;;;7.20;;
15049;SDS011;7622;42.724;23.250;2022-12-10T09:10:22;9.83;;;6.37;;
15049;SDS011;7622;42.724;23.250;2022-12-10T09:12:49;10.30;;;7.33;;
15049;SDS011;7622;42.724;23.250;2022-12-10T09:15:17;11.27;;;6.80;;
15049;SDS011;7622;42.724;23.250;2022-12-10T09:17:44;16.27;;;7.37;;
15049;SDS011;7622;42.724;23.250;2022-12-10T09:20:10;11.40;;;6.60;;
15049;SDS011;7622;42.724;23.250;2022-12-10T09:22:37;9.10;;;6.73;;
15049;SDS011;7622;42.724;23.250;2022-12-10T09:25:04;12.07;;;6.43;;
15049;SDS011;7622;42.724;23.250;2022-12-10T09:27:35;14.20;;;7.33;;
15049;SDS011;7622;42.724;23.250;2022-12-10T09:30:02;14.93;;;6.83;;
15049;SDS011;7622;42.724;23.250;2022-12-10T09:32:31;6.57;;;5.53;;
15049;SDS011;7622;42.724;23.250;2022-12-10T09:34:58;8.13;;;5.93;;
15049;SDS011;7622;42.724;23.250;2022-12-10T09:37:24;8.93;;;6.33;;
15049;SDS011;7622;42.724;23.250;2022-12-10T09:39:51;7.20;;;6.23;;
15049;SDS011;7622;42.724;23.250;2022-12-10T09:42:21;9.67;;;6.83;;
15049;SDS011;7622;42.724;23.250;2022-12-10T09:45:02;9.57;;;6.53;;
15049;SDS011;7622;42.724;23.250;2022-12-10T09:47:36;8.87;;;6.83;;
15049;SDS011;7622;42.724;23.250;2022-12-10T09:50:12;9.57;;;6.60;;
15049;SDS011;7622;42.724;23.250;2022-12-10T09:52:45;8.70;;;5.90;;
15049;SDS011;7622;42.724;23.250;2022-12-10T09:55:15;8.90;;;5.57;;
15049;SDS011;7622;42.724;23.250;2022-12-10T09:57:45;11.67;;;5.67;;
15049;SDS011;7622;42.724;23.250;2022-12-10T10:00:19;6.97;;;5.47;;
15049;SDS011;7622;42.724;23.250;2022-12-10T10:02:49;9.97;;;6.47;;
15049;SDS011;7622;42.724;23.250;2022-12-10T10:05:20;12.53;;;7.10;;
15049;SDS011;7622;42.724;23.250;2022-12-10T10:07:50;9.20;;;6.50;;
15049;SDS011;7622;42.724;23.250;2022-12-10T10:10:21;9.47;;;6.77;;
15049;SDS011;7622;42.724;23.250;2022-12-10T10:12:52;7.90;;;6.03;;
15049;SDS011;7622;42.724;23.250;2022-12-10T10:15:23;9.57;;;6.00;;
15049;SDS011;7622;42.724;23.250;2022-12-10T10:17:55;8.67;;;6.57;;
15049;SDS011;7622;42.724;23.250;2022-12-10T10:20:25;9.47;;;6.40;;
15049;SDS011;7622;42.724;23.250;2022-12-10T10:22:52;6.90;;;5.63;;
15049;SDS011;7622;42.724;23.250;2022-12-10T10:25:22;9.40;;;6.43;;
15049;SDS011;7622;42.724;23.250;2022-12-10T10:27:49;9.83;;;7.10;;
15049;SDS011;7622;42.724;23.250;2022-12-10T10:30:17;16.00;;;7.10;;
15049;SDS011;7622;42.724;23.250;2022-12-10T10:32:47;8.63;;;6.97;;
15049;SDS011;7622;42.724;23.250;2022-12-10T10:38:13;10.73;;;7.77;;
15049;SDS011;7622;42.724;23.250;2022-12-10T10:40:43;12.17;;;6.70;;
15049;SDS011;7622;42.724;23.250;2022-12-10T10:43:13;11.50;;;7.20;;
15049;SDS011;7622;42.724;23.250;2022-12-10T10:45:47;9.03;;;7.93;;
15049;SDS011;7622;42.724;23.250;2022-12-10T10:48:17;11.67;;;7.77;;
15049;SDS011;7622;42.724;23.250;2022-12-10T10:50:47;9.43;;;7.37;;
15049;SDS011;7622;42.724;23.250;2022-12-10T10:53:26;11.57;;;7.23;;
15049;SDS011;7622;42.724;23.250;2022-12-10T10:55:59;10.47;;;7.20;;
15049;SDS011;7622;42.724;23.250;2022-12-10T10:58:33;12.23;;;7.60;;
15049;SDS011;7622;42.724;23.250;2022-12-10T11:01:02;12.03;;;7.33;;
15049;SDS011;7622;42.724;23.250;2022-12-10T11:03:31;21.40;;;14.67;;
15049;SDS011;7622;42.724;23.250;2022-12-10T11:06:04;12.20;;;7.43;;
15049;SDS011;7622;42.724;23.250;2022-12-10T11:08:33;11.13;;;5.97;;
15049;SDS011;7622;42.724;23.250;2022-12-10T11:11:05;12.93;;;6.37;;
15049;SDS011;7622;42.724;23.250;2022-12-10T11:13:36;10.00;;;5.90;;
15049;SDS011;7622;42.724;23.250;2022-12-10T11:16:09;11.33;;;6.13;;
15049;SDS011;7622;42.724;23.250;2022-12-10T11:18:39;8.53;;;5.80;;
15049;SDS011;7622;42.724;23.250;2022-12-10T11:21:15;11.17;;;6.60;;
15049;SDS011;7622;42.724;23.250;2022-12-10T11:23:44;7.30;;;5.23;;
15049;SDS011;7622;42.724;23.250;2022-12-10T11:26:17;8.77;;;5.20;;
15049;SDS011;7622;42.724;23.250;2022-12-10T11:29:03;11.67;;;6.50;;
15049;SDS011;7622;42.724;23.250;2022-12-10T11:31:46;9.17;;;4.73;;
15049;SDS011;7622;42.724;23.250;2022-12-10T11:34:25;9.33;;;6.30;;
15049;SDS011;7622;42.724;23.250;2022-12-10T11:37:03;5.63;;;4.27;;
15049;SDS011;7622;42.724;23.250;2022-12-10T11:42:30;6.70;;;4.07;;
15049;SDS011;7622;42.724;23.250;2022-12-10T11:45:07;8.87;;;3.90;;
15049;SDS011;7622;42.724;23.250;2022-12-10T11:50:37;7.00;;;4.60;;
15049;SDS011;7622;42.724;23.250;2022-12-10T11:56:22;6.67;;;5.60;;
15049;SDS011;7622;42.724;23.250;2022-12-10T11:59:04;6.03;;;4.87;;
15049;SDS011;7622;42.724;23.250;2022-12-10T12:01:40;7.37;;;5.90;;
15049;SDS011;7622;42.724;23.250;2022-12-10T12:04:23;7.50;;;5.93;;
15049;SDS011;7622;42.724;23.250;2022-12-10T12:07:06;8.43;;;5.43;;
15049;SDS011;7622;42.724;23.250;2022-12-10T12:09:53;15.10;;;6.20;;
15049;SDS011;7622;42.724;23.250;2022-12-10T12:12:35;6.97;;;5.47;;
15049;SDS011;7622;42.724;23.250;2022-12-10T12:15:13;17.63;;;6.13;;
15049;SDS011;7622;42.724;23.250;2022-12-10T12:17:47;8.43;;;6.57;;
15049;SDS011;7622;42.724;23.250;2022-12-10T12:20:19;10.90;;;6.13;;
15049;SDS011;7622;42.724;23.250;2022-12-10T12:22:51;8.37;;;5.93;;
15049;SDS011;7622;42.724;23.250;2022-12-10T12:25:26;12.07;;;6.10;;
15049;SDS011;7622;42.724;23.250;2022-12-10T12:27:58;10.80;;;6.20;;
15049;SDS011;7622;42.724;23.250;2022-12-10T12:30:31;10.33;;;6.10;;
15049;SDS011;7622;42.724;23.250;2022-12-10T12:33:01;9.17;;;5.30;;
15049;SDS011;7622;42.724;23.250;2022-12-10T12:35:32;16.37;;;8.57;;
15049;SDS011;7622;42.724;23.250;2022-12-10T12:38:06;9.83;;;4.70;;
15049;SDS011;7622;42.724;23.250;2022-12-10T12:40:50;14.07;;;6.47;;
15049;SDS011;7622;42.724;23.250;2022-12-10T12:43:24;11.87;;;5.73;;
15049;SDS011;7622;42.724;23.250;2022-12-10T12:46:00;9.17;;;5.60;;
15049;SDS011;7622;42.724;23.250;2022-12-10T12:48:32;12.38;;;6.88;;
15049;SDS011;7622;42.724;23.250;2022-12-10T12:51:06;15.67;;;7.90;;
15049;SDS011;7622;42.724;23.250;2022-12-10T12:53:38;19.10;;;8.10;;
15049;SDS011;7622;42.724;23.250;2022-12-10T12:56:09;12.83;;;6.93;;
15049;SDS011;7622;42.724;23.250;2022-12-10T12:58:48;12.07;;;6.43;;
15049;SDS011;7622;42.724;23.250;2022-12-10T13:01:30;10.87;;;6.93;;
15049;SDS011;7622;42.724;23.250;2022-12-10T13:04:02;8.80;;;7.33;;
15049;SDS011;7622;42.724;23.250;2022-12-10T13:06:32;7.77;;;5.90;;
15049;SDS011;7622;42.724;23.250;2022-12-10T13:09:15;13.10;;;6.90;;
15049;SDS011;7622;42.724;23.250;2022-12-10T13:14:54;10.40;;;6.17;;
15049;SDS011;7622;42.724;23.250;2022-12-10T13:17:27;9.73;;;6.80;;
15049;SDS011;7622;42.724;23.250;2022-12-10T13:22:58;8.73;;;6.83;;
15049;SDS011;7622;42.724;23.250;2022-12-10T13:28:27;11.43;;;6.53;;
15049;SDS011;7622;42.724;23.250;2022-12-10T13:34:05;15.37;;;8.10;;
15049;SDS011;7622;42.724;23.250;2022-12-10T13:37:14;16.90;;;7.77;;
15049;SDS011;7622;42.724;23.250;2022-12-10T13:39:48;12.60;;;7.30;;
15049;SDS011;7622;42.724;23.250;2022-12-10T13:42:31;10.03;;;6.40;;
15049;SDS011;7622;42.724;23.250;2022-12-10T13:45:26;14.20;;;9.10;;
15049;SDS011;7622;42.724;23.250;2022-12-10T13:50:55;11.73;;;7.37;;
15049;SDS011;7622;42.724;23.250;2022-12-10T13:53:33;9.60;;;5.87;;
15049;SDS011;7622;42.724;23.250;2022-12-10T13:56:11;9.33;;;5.63;;
15049;SDS011;7622;42.724;23.250;2022-12-10T13:58:46;12.13;;;6.30;;
15049;SDS011;7622;42.724;23.250;2022-12-10T14:01:24;7.50;;;3.90;;
15049;SDS011;7622;42.724;23.250;2022-12-10T14:04:06;13.20;;;5.10;;
15049;SDS011;7622;42.724;23.250;2022-12-10T14:06:50;12.90;;;6.23;;
15049;SDS011;7622;42.724;23.250;2022-12-10T14:09:18;11.17;;;7.10;;
15049;SDS011;7622;42.724;23.250;2022-12-10T14:11:49;16.70;;;9.77;;
15049;SDS011;7622;42.724;23.250;2022-12-10T14:14:22;17.60;;;11.37;;
15049;SDS011;7622;42.724;23.250;2022-12-10T14:16:54;16.93;;;10.20;;
15049;SDS011;7622;42.724;23.250;2022-12-10T14:19:21;15.73;;;9.80;;
15049;SDS011;7622;42.724;23.250;2022-12-10T14:21:52;19.30;;;10.60;;
15049;SDS011;7622;42.724;23.250;2022-12-10T14:24:27;15.33;;;10.43;;
15049;SDS011;7622;42.724;23.250;2022-12-10T14:26:57;22.70;;;10.20;;
15049;SDS011;7622;42.724;23.250;2022-12-10T14:29:25;20.50;;;10.80;;
15049;SDS011;7622;42.724;23.250;2022-12-10T14:31:53;16.83;;;10.27;;
15049;SDS011;7622;42.724;23.250;2022-12-10T14:34:21;12.97;;;8.80;;
15049;SDS011;7622;42.724;23.250;2022-12-10T14:36:52;11.47;;;7.00;;
15049;SDS011;7622;42.724;23.250;2022-12-10T14:39:24;15.90;;;7.47;;
15049;SDS011;7622;42.724;23.250;2022-12-10T14:41:53;12.40;;;7.83;;
15049;SDS011;7622;42.724;23.250;2022-12-10T14:44:22;15.07;;;8.33;;
15049;SDS011;7622;42.724;23.250;2022-12-10T14:46:49;14.40;;;7.80;;
15049;SDS011;7622;42.724;23.250;2022-12-10T14:49:23;13.57;;;7.80;;
15049;SDS011;7622;42.724;23.250;2022-12-10T14:51:53;19.43;;;8.73;;
15049;SDS011;7622;42.724;23.250;2022-12-10T14:54:28;14.23;;;7.90;;
15049;SDS011;7622;42.724;23.250;2022-12-10T14:57:00;18.13;;;8.67;;
15049;SDS011;7622;42.724;23.250;2022-12-10T14:59:30;17.30;;;9.27;;
15049;SDS011;7622;42.724;23.250;2022-12-10T15:02:04;13.73;;;9.50;;
15049;SDS011;7622;42.724;23.250;2022-12-10T15:04:43;15.40;;;10.40;;
15049;SDS011;7622;42.724;23.250;2022-12-10T15:07:13;17.07;;;9.43;;
15049;SDS011;7622;42.724;23.250;2022-12-10T15:09:45;16.07;;;9.10;;
15049;SDS011;7622;42.724;23.250;2022-12-10T15:12:15;11.47;;;8.17;;
15049;SDS011;7622;42.724;23.250;2022-12-10T15:14:50;12.57;;;8.47;;
15049;SDS011;7622;42.724;23.250;2022-12-10T15:17:32;14.30;;;8.63;;
15049;SDS011;7622;42.724;23.250;2022-12-10T15:20:08;13.90;;;8.70;;
15049;SDS011;7622;42.724;23.250;2022-12-10T15:22:47;14.13;;;7.77;;
15049;SDS011;7622;42.724;23.250;2022-12-10T15:25:24;12.30;;;8.13;;
15049;SDS011;7622;42.724;23.250;2022-12-10T15:28:00;13.43;;;7.67;;
15049;SDS011;7622;42.724;23.250;2022-12-10T15:30:34;22.03;;;8.07;;
15049;SDS011;7622;42.724;23.250;2022-12-10T15:33:18;11.80;;;8.53;;
15049;SDS011;7622;42.724;23.250;2022-12-10T15:35:59;13.77;;;8.43;;
15049;SDS011;7622;42.724;23.250;2022-12-10T15:38:28;20.57;;;9.20;;
15049;SDS011;7622;42.724;23.250;2022-12-10T15:40:59;17.27;;;9.00;;
15049;SDS011;7622;42.724;23.250;2022-12-10T15:43:55;18.30;;;9.70;;
15049;SDS011;7622;42.724;23.250;2022-12-10T15:46:25;15.63;;;9.03;;
15049;SDS011;7622;42.724;23.250;2022-12-10T15:48:52;17.33;;;9.13;;
15049;SDS011;7622;42.724;23.250;2022-12-10T15:51:22;13.53;;;9.23;;
15049;SDS011;7622;42.724;23.250;2022-12-10T15:53:52;18.30;;;8.67;;
15049;SDS011;7622;42.724;23.250;2022-12-10T15:56:18;14.67;;;9.47;;
15049;SDS011;7622;42.724;23.250;2022-12-10T15:58:48;15.73;;;8.33;;
15049;SDS011;7622;42.724;23.250;2022-12-10T16:01:19;22.50;;;9.60;;
15049;SDS011;7622;42.724;23.250;2022-12-10T16:03:49;13.90;;;8.00;;
15049;SDS011;7622;42.724;23.250;2022-12-10T16:06:18;16.67;;;8.23;;
15049;SDS011;7622;42.724;23.250;2022-12-10T16:08:46;14.97;;;8.73;;
15049;SDS011;7622;42.724;23.250;2022-12-10T16:11:15;13.60;;;10.43;;
15049;SDS011;7622;42.724;23.250;2022-12-10T16:13:45;18.87;;;9.70;;
15049;SDS011;7622;42.724;23.250;2022-12-10T16:16:15;17.03;;;9.30;;